createdAt,value
2018-02-21T00:00:38.325Z,-4.94
2018-02-21T00:01:38.273Z,-4.94
2018-02-21T00:02:38.267Z,-4.95
2018-02-21T00:03:38.252Z,-4.98
2018-02-21T00:04:38.246Z,-5.11
2018-02-21T00:05:38.272Z,-5.26
2018-02-21T00:06:38.225Z,-5.25
2018-02-21T00:07:38.213Z,-5.27
2018-02-21T00:08:38.215Z,-5.31
2018-02-21T00:09:38.237Z,-5.41
2018-02-21T00:10:38.183Z,-5.27
2018-02-21T00:11:38.174Z,-5.26
2018-02-21T00:12:38.163Z,-5.27
2018-02-21T00:13:38.154Z,-5.26
2018-02-21T00:14:38.201Z,-5.23
2018-02-21T00:15:38.135Z,-5.26
2018-02-21T00:16:38.122Z,-5.38
2018-02-21T00:17:38.114Z,-5.37
2018-02-21T00:18:38.104Z,-5.45
2018-02-21T00:19:38.151Z,-5.44
2018-02-21T00:20:38.084Z,-5.49
2018-02-21T00:21:38.074Z,-5.52
2018-02-21T00:22:38.125Z,-5.56
2018-02-21T00:23:38.051Z,-5.52
2018-02-21T00:24:38.083Z,-5.62
2018-02-21T00:25:38.032Z,-5.63
2018-02-21T00:26:38.021Z,-5.51
2018-02-21T00:27:38.016Z,-5.61
2018-02-21T00:28:37.999Z,-5.52
2018-02-21T00:29:38.031Z,-5.33
2018-02-21T00:30:37.984Z,-5.38
2018-02-21T00:31:37.969Z,-5.38
2018-02-21T00:32:37.962Z,-5.45
2018-02-21T00:33:37.947Z,-5.47
2018-02-21T00:34:37.977Z,-5.40
2018-02-21T00:35:37.929Z,-5.52
2018-02-21T00:36:37.922Z,-5.51
2018-02-21T00:37:37.914Z,-5.51
2018-02-21T00:38:37.898Z,-5.55
2018-02-21T00:39:37.940Z,-5.52
2018-02-21T00:40:37.880Z,-5.55
2018-02-21T00:41:37.871Z,-5.40
2018-02-21T00:42:37.859Z,-5.45
2018-02-21T00:43:37.855Z,-5.37
2018-02-21T00:44:37.838Z,-5.40
2018-02-21T00:45:37.883Z,-5.40
2018-02-21T00:46:37.817Z,-5.56
2018-02-21T00:47:37.807Z,-5.47
2018-02-21T00:48:37.794Z,-5.59
2018-02-21T00:49:37.825Z,-5.72
2018-02-21T00:50:37.775Z,-5.69
2018-02-21T00:51:37.807Z,-5.76
2018-02-21T00:52:37.769Z,-5.76
2018-02-21T00:53:37.744Z,-5.74
2018-02-21T00:54:37.732Z,-5.83
2018-02-21T00:55:37.764Z,-5.91
2018-02-21T00:56:37.713Z,-5.84
2018-02-21T00:57:37.701Z,-5.94
2018-02-21T00:58:37.690Z,-5.92
2018-02-21T00:59:37.679Z,-5.94
2018-02-21T01:00:37.726Z,-5.84
2018-02-21T01:01:37.667Z,-5.94
2018-02-21T01:02:37.650Z,-5.98
2018-02-21T01:03:37.641Z,-5.94
2018-02-21T01:04:37.669Z,-5.95
2018-02-21T01:05:37.654Z,-5.91
2018-02-21T01:06:37.609Z,-5.90
2018-02-21T01:07:37.596Z,-5.90
2018-02-21T01:08:37.584Z,-5.88
2018-02-21T01:09:37.577Z,-5.76
2018-02-21T01:10:37.609Z,-5.76
2018-02-21T01:11:37.552Z,-5.77
2018-02-21T01:12:37.543Z,-5.83
2018-02-21T01:13:37.532Z,-5.88
2018-02-21T01:14:37.526Z,-5.94
2018-02-21T01:15:37.553Z,-6.00
2018-02-21T01:16:37.501Z,-6.09
2018-02-21T01:17:37.495Z,-6.11
2018-02-21T01:18:37.480Z,-6.05
2018-02-21T01:19:37.471Z,-6.12
2018-02-21T01:20:37.496Z,-6.08
2018-02-21T01:21:37.447Z,-5.94
2018-02-21T01:22:37.447Z,-5.94
2018-02-21T01:23:37.435Z,-6.01
2018-02-21T01:24:37.415Z,-6.00
2018-02-21T01:25:37.445Z,-5.98
2018-02-21T01:26:37.394Z,-5.90
2018-02-21T01:27:37.384Z,-5.90
2018-02-21T01:28:37.426Z,-5.88
2018-02-21T01:29:37.367Z,-5.97
2018-02-21T01:30:37.439Z,-5.90
2018-02-21T01:31:37.372Z,-5.98
2018-02-21T01:32:37.337Z,-5.98
2018-02-21T01:33:37.364Z,-6.00
2018-02-21T01:34:37.312Z,-5.98
2018-02-21T01:35:37.297Z,-5.94
2018-02-21T01:36:37.330Z,-6.05
2018-02-21T01:37:37.279Z,-6.09
2018-02-21T01:38:37.264Z,-6.11
2018-02-21T01:39:37.255Z,-6.11
2018-02-21T01:40:37.313Z,-6.06
2018-02-21T01:41:37.235Z,-6.13
2018-02-21T01:42:37.227Z,-6.02
2018-02-21T01:43:37.211Z,-6.12
2018-02-21T01:44:37.204Z,-6.02
2018-02-21T01:45:37.193Z,-5.95
2018-02-21T01:46:37.239Z,-5.95
2018-02-21T01:47:37.171Z,-5.92
2018-02-21T01:48:37.199Z,-5.97
2018-02-21T01:49:37.151Z,-5.98
2018-02-21T01:50:37.139Z,-6.13
2018-02-21T01:51:37.129Z,-6.23
2018-02-21T01:52:37.155Z,-6.24
2018-02-21T01:53:37.105Z,-6.23
2018-02-21T01:54:37.094Z,-6.30
2018-02-21T01:55:37.082Z,-6.21
2018-02-21T01:56:37.071Z,-6.29
2018-02-21T01:57:37.122Z,-6.29
2018-02-21T01:58:37.093Z,-6.29
2018-02-21T01:59:37.041Z,-6.27
2018-02-21T02:00:37.032Z,-6.29
2018-02-21T02:01:37.069Z,-6.21
2018-02-21T02:02:37.008Z,-6.15
2018-02-21T02:03:36.996Z,-6.29
2018-02-21T02:04:36.986Z,-6.30
2018-02-21T02:05:36.976Z,-6.15
2018-02-21T02:06:36.967Z,-6.16
2018-02-21T02:07:36.999Z,-6.00
2018-02-21T02:08:36.947Z,-5.91
2018-02-21T02:09:36.934Z,-6.13
2018-02-21T02:10:36.922Z,-6.12
2018-02-21T02:11:36.952Z,-6.26
2018-02-21T02:12:36.901Z,-6.27
2018-02-21T02:13:36.892Z,-6.39
2018-02-21T02:14:36.880Z,-6.44
2018-02-21T02:15:36.867Z,-6.42
2018-02-21T02:16:36.915Z,-6.48
2018-02-21T02:17:36.847Z,-6.40
2018-02-21T02:18:36.871Z,-6.50
2018-02-21T02:19:37.339Z,-6.70
2018-02-21T02:20:36.814Z,-6.71
2018-02-21T02:21:36.805Z,-6.71
2018-02-21T02:22:36.829Z,-6.79
2018-02-21T02:23:36.784Z,-6.76
2018-02-21T02:24:36.773Z,-6.74
2018-02-21T02:25:36.761Z,-6.79
2018-02-21T02:26:36.750Z,-6.79
2018-02-21T02:27:36.779Z,-6.69
2018-02-21T02:28:36.726Z,-6.77
2018-02-21T02:29:36.714Z,-6.63
2018-02-21T02:30:37.393Z,-6.48
2018-02-21T02:31:36.694Z,-6.47
2018-02-21T02:32:36.727Z,-6.37
2018-02-21T02:33:36.675Z,-6.34
2018-02-21T02:34:36.661Z,-6.37
2018-02-21T02:35:36.649Z,-6.39
2018-02-21T02:36:36.642Z,-6.54
2018-02-21T02:37:36.686Z,-6.54
2018-02-21T02:38:36.623Z,-6.45
2018-02-21T02:39:36.609Z,-6.44
2018-02-21T02:40:36.594Z,-6.45
2018-02-21T02:41:36.586Z,-6.39
2018-02-21T02:42:36.573Z,-6.34
2018-02-21T02:43:36.608Z,-6.23
2018-02-21T02:44:36.554Z,-6.36
2018-02-21T02:45:36.545Z,-6.39
2018-02-21T02:46:36.530Z,-6.37
2018-02-21T02:47:36.516Z,-6.31
2018-02-21T02:48:36.549Z,-6.26
2018-02-21T02:49:36.497Z,-6.33
2018-02-21T02:50:36.493Z,-6.37
2018-02-21T02:51:36.474Z,-6.40
2018-02-21T02:52:37.430Z,-6.50
2018-02-21T02:53:36.455Z,-6.47
2018-02-21T02:54:36.445Z,-6.58
2018-02-21T02:55:36.432Z,-6.55
2018-02-21T02:56:36.422Z,-6.71
2018-02-21T02:57:36.447Z,-6.70
2018-02-21T02:58:36.399Z,-6.76
2018-02-21T02:59:36.387Z,-6.74
2018-02-21T03:00:36.375Z,-6.85
2018-02-21T03:01:36.366Z,-6.90
2018-02-21T03:02:36.396Z,-6.95
2018-02-21T03:03:36.342Z,-6.99
2018-02-21T03:04:36.334Z,-6.92
2018-02-21T03:05:36.322Z,-6.91
2018-02-21T03:06:36.310Z,-6.88
2018-02-21T03:07:36.334Z,-6.85
2018-02-21T03:08:36.286Z,-6.90
2018-02-21T03:09:36.281Z,-6.88
2018-02-21T03:10:36.265Z,-6.85
2018-02-21T03:11:36.256Z,-6.88
2018-02-21T03:12:36.283Z,-6.85
2018-02-21T03:13:36.237Z,-6.66
2018-02-21T03:14:36.218Z,-6.54
2018-02-21T03:15:36.209Z,-6.47
2018-02-21T03:16:36.201Z,-6.61
2018-02-21T03:17:36.225Z,-6.66
2018-02-21T03:18:36.177Z,-6.73
2018-02-21T03:19:36.165Z,-6.70
2018-02-21T03:20:36.158Z,-6.67
2018-02-21T03:21:36.144Z,-6.69
2018-02-21T03:22:36.230Z,-6.76
2018-02-21T03:23:36.120Z,-6.79
2018-02-21T03:24:36.110Z,-6.90
2018-02-21T03:25:36.099Z,-6.85
2018-02-21T03:26:36.088Z,-6.87
2018-02-21T03:27:36.130Z,-6.81
2018-02-21T03:28:36.065Z,-6.84
2018-02-21T03:29:36.053Z,-6.91
2018-02-21T03:30:36.048Z,-6.71
2018-02-21T03:31:36.035Z,-6.71
2018-02-21T03:32:36.020Z,-6.67
2018-02-21T03:33:36.051Z,-6.74
2018-02-21T03:34:36.025Z,-6.81
2018-02-21T03:35:35.986Z,-6.82
2018-02-21T03:36:35.977Z,-6.94
2018-02-21T03:37:35.964Z,-6.87
2018-02-21T03:38:35.992Z,-6.95
2018-02-21T03:39:35.942Z,-6.85
2018-02-21T03:40:35.934Z,-6.88
2018-02-21T03:41:35.922Z,-6.82
2018-02-21T03:42:35.968Z,-6.90
2018-02-21T03:43:35.900Z,-6.82
2018-02-21T03:44:35.887Z,-6.85
2018-02-21T03:45:35.875Z,-6.94
2018-02-21T03:46:35.903Z,-6.85
2018-02-21T03:47:35.854Z,-6.79
2018-02-21T03:48:35.897Z,-6.73
2018-02-21T03:49:35.854Z,-6.69
2018-02-21T03:50:35.818Z,-6.63
2018-02-21T03:51:35.809Z,-6.54
2018-02-21T03:52:35.798Z,-6.51
2018-02-21T03:53:35.826Z,-6.39
2018-02-21T03:54:35.776Z,-6.40
2018-02-21T03:55:35.763Z,-6.44
2018-02-21T03:56:35.753Z,-6.44
2018-02-21T03:57:35.744Z,-6.42
2018-02-21T03:58:35.797Z,-6.50
2018-02-21T03:59:35.725Z,-6.47
2018-02-21T04:00:35.708Z,-6.67
2018-02-21T04:01:35.695Z,-6.70
2018-02-21T04:02:35.686Z,-6.70
2018-02-21T04:03:35.715Z,-6.77
2018-02-21T04:04:35.662Z,-6.85
2018-02-21T04:05:35.654Z,-6.84
2018-02-21T04:06:35.644Z,-6.82
2018-02-21T04:07:35.636Z,-6.79
2018-02-21T04:08:35.657Z,-6.77
2018-02-21T04:09:35.608Z,-6.79
2018-02-21T04:10:35.596Z,-6.92
2018-02-21T04:11:35.584Z,-6.74
2018-02-21T04:12:35.575Z,-6.74
2018-02-21T04:13:35.607Z,-6.71
2018-02-21T04:14:35.557Z,-6.59
2018-02-21T04:15:35.552Z,-6.61
2018-02-21T04:16:35.526Z,-6.51
2018-02-21T04:17:35.518Z,-6.54
2018-02-21T04:18:35.564Z,-6.48
2018-02-21T04:19:35.496Z,-6.52
2018-02-21T04:20:35.487Z,-6.47
2018-02-21T04:21:35.517Z,-6.51
2018-02-21T04:22:35.506Z,-6.48
2018-02-21T04:23:36.309Z,-6.45
2018-02-21T04:24:35.456Z,-6.51
2018-02-21T04:25:35.430Z,-6.73
2018-02-21T04:26:35.418Z,-6.74
2018-02-21T04:27:35.446Z,-6.76
2018-02-21T04:28:35.398Z,-6.90
2018-02-21T04:29:35.385Z,-6.90
2018-02-21T04:30:37.118Z,-6.91
2018-02-21T04:31:35.360Z,-6.88
2018-02-21T04:32:35.389Z,-6.97
2018-02-21T04:33:35.339Z,-6.99
2018-02-21T04:34:35.403Z,-7.02
2018-02-21T04:35:35.318Z,-6.97
2018-02-21T04:36:35.307Z,-6.99
2018-02-21T04:37:35.355Z,-6.97
2018-02-21T04:38:35.284Z,-6.99
2018-02-21T04:39:35.270Z,-6.99
2018-02-21T04:40:35.263Z,-7.00
2018-02-21T04:41:35.292Z,-7.03
2018-02-21T04:42:35.281Z,-7.06
2018-02-21T04:43:35.231Z,-7.08
2018-02-21T04:44:35.219Z,-7.21
2018-02-21T04:45:35.205Z,-7.13
2018-02-21T04:46:35.197Z,-7.16
2018-02-21T04:47:35.225Z,-7.19
2018-02-21T04:48:35.170Z,-7.15
2018-02-21T04:49:35.160Z,-7.24
2018-02-21T04:50:35.148Z,-7.31
2018-02-21T04:51:35.141Z,-7.16
2018-02-21T04:52:35.187Z,-7.02
2018-02-21T04:53:35.116Z,-6.94
2018-02-21T04:54:35.107Z,-7.05
2018-02-21T04:55:35.091Z,-6.95
2018-02-21T04:56:35.139Z,-6.99
2018-02-21T04:57:35.071Z,-6.97
2018-02-21T04:58:35.060Z,-6.91
2018-02-21T04:59:35.049Z,-7.02
2018-02-21T05:00:35.064Z,-7.09
2018-02-21T05:01:35.066Z,-7.08
2018-02-21T05:02:35.051Z,-7.15
2018-02-21T05:03:35.000Z,-7.19
2018-02-21T05:04:34.989Z,-7.15
2018-02-21T05:05:34.979Z,-7.20
2018-02-21T05:06:34.972Z,-7.15
2018-02-21T05:07:35.000Z,-7.20
2018-02-21T05:08:34.942Z,-7.15
2018-02-21T05:09:34.935Z,-7.16
2018-02-21T05:10:34.926Z,-7.24
2018-02-21T05:11:34.908Z,-7.13
2018-02-21T05:12:34.939Z,-7.19
2018-02-21T05:13:34.922Z,-7.09
2018-02-21T05:14:34.876Z,-7.21
2018-02-21T05:15:34.866Z,-7.13
2018-02-21T05:16:34.893Z,-7.15
2018-02-21T05:17:34.880Z,-7.19
2018-02-21T05:18:34.831Z,-7.20
2018-02-21T05:19:34.819Z,-7.27
2018-02-21T05:20:34.806Z,-7.27
2018-02-21T05:21:34.804Z,-7.31
2018-02-21T05:22:34.842Z,-7.42
2018-02-21T05:23:34.772Z,-7.33
2018-02-21T05:24:34.767Z,-7.52
2018-02-21T05:25:34.795Z,-7.52
2018-02-21T05:26:34.739Z,-7.52
2018-02-21T05:27:34.765Z,-7.45
2018-02-21T05:28:34.719Z,-7.51
2018-02-21T05:29:34.705Z,-7.45
2018-02-21T05:30:34.758Z,-7.51
2018-02-21T05:31:34.682Z,-7.48
2018-02-21T05:32:34.710Z,-7.52
2018-02-21T05:33:34.662Z,-7.51
2018-02-21T05:34:34.646Z,-7.48
2018-02-21T05:35:34.638Z,-7.52
2018-02-21T05:36:34.649Z,-7.52
2018-02-21T05:37:34.700Z,-7.45
2018-02-21T05:38:34.603Z,-7.42
2018-02-21T05:39:34.590Z,-7.37
2018-02-21T05:40:34.579Z,-7.33
2018-02-21T05:41:34.562Z,-7.29
2018-02-21T05:42:34.594Z,-7.15
2018-02-21T05:43:34.542Z,-7.16
2018-02-21T05:44:34.534Z,-7.15
2018-02-21T05:45:34.522Z,-7.21
2018-02-21T05:46:34.508Z,-7.10
2018-02-21T05:47:34.554Z,-7.08
2018-02-21T05:48:34.484Z,-7.09
2018-02-21T05:49:34.476Z,-7.12
2018-02-21T05:50:34.502Z,-7.09
2018-02-21T05:51:34.452Z,-7.09
2018-02-21T05:52:34.443Z,-7.08
2018-02-21T05:53:34.431Z,-7.23
2018-02-21T05:54:34.457Z,-7.23
2018-02-21T05:55:35.053Z,-7.27
2018-02-21T05:56:34.395Z,-7.21
2018-02-21T05:57:34.382Z,-7.23
2018-02-21T05:58:34.371Z,-7.30
2018-02-21T05:59:34.410Z,-7.21
2018-02-21T06:00:34.351Z,-7.27
2018-02-21T06:01:34.341Z,-7.16
2018-02-21T06:02:34.325Z,-7.24
2018-02-21T06:03:34.311Z,-7.15
2018-02-21T06:04:34.342Z,-7.23
2018-02-21T06:05:34.293Z,-7.15
2018-02-21T06:06:34.279Z,-7.16
2018-02-21T06:07:34.266Z,-7.16
2018-02-21T06:08:34.812Z,-7.19
2018-02-21T06:09:34.285Z,-7.15
2018-02-21T06:10:34.234Z,-7.20
2018-02-21T06:11:34.222Z,-7.10
2018-02-21T06:12:34.212Z,-7.09
2018-02-21T06:13:34.202Z,-7.00
2018-02-21T06:14:34.227Z,-7.02
2018-02-21T06:15:34.180Z,-6.92
2018-02-21T06:16:34.168Z,-6.97
2018-02-21T06:17:34.156Z,-7.02
2018-02-21T06:18:34.184Z,-6.85
2018-02-21T06:19:34.189Z,-6.85
2018-02-21T06:20:34.122Z,-6.85
2018-02-21T06:21:34.107Z,-6.74
2018-02-21T06:22:34.099Z,-6.69
2018-02-21T06:23:34.085Z,-6.73
2018-02-21T06:24:34.113Z,-6.81
2018-02-21T06:25:34.102Z,-6.73
2018-02-21T06:26:34.053Z,-6.77
2018-02-21T06:27:34.040Z,-6.67
2018-02-21T06:28:34.030Z,-6.71
2018-02-21T06:29:34.019Z,-6.59
2018-02-21T06:30:34.066Z,-6.54
2018-02-21T06:31:33.999Z,-6.58
2018-02-21T06:32:33.984Z,-6.51
2018-02-21T06:33:33.973Z,-6.51
2018-02-21T06:34:33.966Z,-6.48
2018-02-21T06:35:33.994Z,-6.50
2018-02-21T06:36:33.943Z,-6.52
2018-02-21T06:37:33.933Z,-6.50
2018-02-21T06:38:33.920Z,-6.48
2018-02-21T06:39:33.958Z,-6.42
2018-02-21T06:40:33.899Z,-6.42
2018-02-21T06:41:33.889Z,-6.42
2018-02-21T06:42:33.876Z,-6.44
2018-02-21T06:43:33.866Z,-6.39
2018-02-21T06:44:33.854Z,-6.44
2018-02-21T06:45:33.889Z,-6.37
2018-02-21T06:46:33.835Z,-6.33
2018-02-21T06:47:33.822Z,-6.21
2018-02-21T06:48:33.812Z,-6.31
2018-02-21T06:49:33.801Z,-6.13
2018-02-21T06:50:33.849Z,-6.09
2018-02-21T06:51:33.780Z,-6.08
2018-02-21T06:52:33.769Z,-6.09
2018-02-21T06:53:33.760Z,-5.92
2018-02-21T06:54:33.837Z,-5.95
2018-02-21T06:55:33.736Z,-5.95
2018-02-21T06:56:33.767Z,-5.90
2018-02-21T06:57:33.718Z,-5.87
2018-02-21T06:58:33.705Z,-5.83
2018-02-21T06:59:33.697Z,-5.69
2018-02-21T07:00:33.688Z,-5.61
2018-02-21T07:01:33.717Z,-5.54
2018-02-21T07:02:33.666Z,-5.43
2018-02-21T07:03:33.655Z,-5.26
2018-02-21T07:04:33.643Z,-5.11
2018-02-21T07:05:33.636Z,-5.12
2018-02-21T07:06:33.666Z,-4.97
2018-02-21T07:07:33.612Z,-4.93
2018-02-21T07:08:33.602Z,-4.75
2018-02-21T07:09:33.594Z,-4.76
2018-02-21T07:10:33.582Z,-4.77
2018-02-21T07:11:33.611Z,-4.73
2018-02-21T07:12:33.565Z,-4.95
2018-02-21T07:13:33.553Z,-4.93
2018-02-21T07:14:33.544Z,-4.93
2018-02-21T07:15:33.555Z,-4.87
2018-02-21T07:16:33.569Z,-4.83
2018-02-21T07:17:33.515Z,-4.91
2018-02-21T07:18:33.537Z,-4.89
2018-02-21T07:19:33.497Z,-4.89
2018-02-21T07:20:33.487Z,-4.97
2018-02-21T07:21:33.522Z,-4.93
2018-02-21T07:22:33.466Z,-4.85
2018-02-21T07:23:33.460Z,-4.71
2018-02-21T07:24:33.447Z,-4.82
2018-02-21T07:25:33.445Z,-4.82
2018-02-21T07:26:33.468Z,-4.95
2018-02-21T07:27:33.418Z,-4.91
2018-02-21T07:28:33.411Z,-4.89
2018-02-21T07:29:33.401Z,-4.91
2018-02-21T07:30:33.391Z,-4.97
2018-02-21T07:31:33.422Z,-4.93
2018-02-21T07:32:33.373Z,-4.85
2018-02-21T07:33:33.367Z,-4.87
2018-02-21T07:34:33.359Z,-4.77
2018-02-21T07:35:33.349Z,-4.75
2018-02-21T07:36:33.385Z,-4.68
2018-02-21T07:37:33.333Z,-4.62
2018-02-21T07:38:33.323Z,-4.41
2018-02-21T07:39:33.312Z,-4.36
2018-02-21T07:40:33.300Z,-4.32
2018-02-21T07:41:33.333Z,-4.11
2018-02-21T07:42:33.286Z,-4.02
2018-02-21T07:43:34.024Z,-3.93
2018-02-21T07:44:33.272Z,-4.18
2018-02-21T07:45:33.262Z,-4.08
2018-02-21T07:46:33.292Z,-4.04
2018-02-21T07:47:33.244Z,-4.07
2018-02-21T07:48:33.229Z,-4.01
2018-02-21T07:49:33.223Z,-3.80
2018-02-21T07:50:33.216Z,-3.70
2018-02-21T07:51:33.244Z,-3.61
2018-02-21T07:52:33.197Z,-3.47
2018-02-21T07:53:33.336Z,-3.46
2018-02-21T07:54:33.188Z,-3.35
2018-02-21T07:55:33.173Z,-3.28
2018-02-21T07:56:33.206Z,-3.13
2018-02-21T07:57:33.157Z,-3.15
2018-02-21T07:58:33.146Z,-3.11
2018-02-21T07:59:33.154Z,-3.08
2018-02-21T08:00:33.135Z,-3.13
2018-02-21T08:01:33.173Z,-3.15
2018-02-21T08:02:33.114Z,-3.07
2018-02-21T08:03:33.106Z,-3.33
2018-02-21T08:04:33.100Z,-3.38
2018-02-21T08:05:33.092Z,-3.35
2018-02-21T08:06:33.104Z,-3.38
2018-02-21T08:07:33.115Z,-3.39
2018-02-21T08:08:33.067Z,-3.31
2018-02-21T08:09:33.057Z,-3.31
2018-02-21T08:10:33.052Z,-3.26
2018-02-21T08:11:33.045Z,-3.07
2018-02-21T08:12:33.078Z,-3.08
2018-02-21T08:13:33.029Z,-3.35
2018-02-21T08:14:33.022Z,-3.43
2018-02-21T08:15:33.019Z,-3.41
2018-02-21T08:16:33.005Z,-3.22
2018-02-21T08:17:33.053Z,-3.11
2018-02-21T08:18:32.992Z,-2.93
2018-02-21T08:19:33.032Z,-3.04
2018-02-21T08:20:32.981Z,-2.93
2018-02-21T08:21:32.970Z,-2.74
2018-02-21T08:22:33.011Z,-2.63
2018-02-21T08:23:32.950Z,-2.68
2018-02-21T08:24:32.948Z,-2.45
2018-02-21T08:25:32.939Z,-2.43
2018-02-21T08:26:32.932Z,-2.64
2018-02-21T08:27:32.962Z,-2.61
2018-02-21T08:28:32.916Z,-2.79
2018-02-21T08:29:32.909Z,-2.85
2018-02-21T08:30:32.902Z,-2.97
2018-02-21T08:31:33.400Z,-3.08
2018-02-21T08:32:32.935Z,-3.02
2018-02-21T08:33:32.881Z,-2.89
2018-02-21T08:34:32.874Z,-2.66
2018-02-21T08:35:32.864Z,-2.78
2018-02-21T08:36:32.862Z,-2.75
2018-02-21T08:37:32.894Z,-2.78
2018-02-21T08:38:32.844Z,-2.96
2018-02-21T08:39:32.837Z,-3.07
2018-02-21T08:40:32.829Z,-3.13
2018-02-21T08:41:32.828Z,-3.17
2018-02-21T08:42:32.867Z,-3.18
2018-02-21T08:43:32.816Z,-3.28
2018-02-21T08:44:32.802Z,-3.18
2018-02-21T08:45:32.795Z,-3.08
2018-02-21T08:46:32.788Z,-3.10
2018-02-21T08:47:32.779Z,-3.13
2018-02-21T08:48:32.812Z,-3.18
2018-02-21T08:49:32.768Z,-3.18
2018-02-21T08:50:32.757Z,-3.11
2018-02-21T08:51:32.753Z,-3.23
2018-02-21T08:52:32.805Z,-3.32
2018-02-21T08:53:32.779Z,-3.25
2018-02-21T08:54:32.733Z,-3.39
2018-02-21T08:55:33.398Z,-3.17
2018-02-21T08:56:32.718Z,-3.29
2018-02-21T08:57:32.748Z,-3.33
2018-02-21T08:58:32.707Z,-3.11
2018-02-21T08:59:32.694Z,-3.11
2018-02-21T09:00:32.689Z,-3.29
2018-02-21T09:01:32.683Z,-3.33
2018-02-21T09:02:32.732Z,-3.32
2018-02-21T09:03:32.727Z,-3.11
2018-02-21T09:04:32.663Z,-3.02
2018-02-21T09:05:32.657Z,-3.04
2018-02-21T09:06:32.676Z,-3.05
2018-02-21T09:07:32.643Z,-3.00
2018-02-21T09:08:32.694Z,-2.97
2018-02-21T09:09:32.628Z,-2.94
2018-02-21T09:10:32.626Z,-2.94
2018-02-21T09:11:32.617Z,-2.90
2018-02-21T09:12:32.612Z,-2.99
2018-02-21T09:13:32.660Z,-3.07
2018-02-21T09:14:32.599Z,-3.05
2018-02-21T09:15:32.591Z,-3.05
2018-02-21T09:16:32.594Z,-2.97
2018-02-21T09:17:32.580Z,-2.97
2018-02-21T09:18:32.613Z,-2.93
2018-02-21T09:19:32.604Z,-2.97
2018-02-21T09:20:32.559Z,-2.93
2018-02-21T09:21:32.570Z,-2.97
2018-02-21T09:22:32.547Z,-3.10
2018-02-21T09:23:33.380Z,-3.07
2018-02-21T09:24:32.572Z,-2.97
2018-02-21T09:25:32.526Z,-2.89
2018-02-21T09:26:32.518Z,-2.86
2018-02-21T09:27:32.517Z,-2.97
2018-02-21T09:28:32.507Z,-2.87
2018-02-21T09:29:32.540Z,-2.86
2018-02-21T09:30:32.496Z,-2.69
2018-02-21T09:31:32.489Z,-2.71
2018-02-21T09:32:33.012Z,-2.76
2018-02-21T09:33:32.474Z,-2.79
2018-02-21T09:34:32.522Z,-2.60
2018-02-21T09:35:32.462Z,-2.57
2018-02-21T09:36:32.455Z,-2.50
2018-02-21T09:37:32.447Z,-2.50
2018-02-21T09:38:32.440Z,-2.33
2018-02-21T09:39:32.492Z,-2.35
2018-02-21T09:40:32.427Z,-2.42
2018-02-21T09:41:32.423Z,-2.47
2018-02-21T09:42:32.418Z,-2.26
2018-02-21T09:43:32.410Z,-2.03
2018-02-21T09:44:32.457Z,-2.11
2018-02-21T09:45:32.402Z,-2.40
2018-02-21T09:46:32.391Z,-2.26
2018-02-21T09:47:32.384Z,-2.10
2018-02-21T09:48:32.385Z,-2.23
2018-02-21T09:49:32.376Z,-2.17
2018-02-21T09:50:32.406Z,-2.11
2018-02-21T09:51:32.365Z,-1.93
2018-02-21T09:52:32.360Z,-1.90
2018-02-21T09:53:32.350Z,-2.08
2018-02-21T09:54:32.560Z,-1.85
2018-02-21T09:55:32.962Z,-2.13
2018-02-21T09:56:32.336Z,-2.23
2018-02-21T09:57:32.331Z,-2.14
2018-02-21T09:58:32.326Z,-2.11
2018-02-21T09:59:32.357Z,-1.84
2018-02-21T10:00:32.313Z,-1.81
2018-02-21T10:01:32.307Z,-1.84
2018-02-21T10:02:32.302Z,-1.74
2018-02-21T10:03:32.297Z,-1.93
2018-02-21T10:04:32.366Z,-1.87
2018-02-21T10:05:32.285Z,-2.05
2018-02-21T10:06:32.279Z,-2.00
2018-02-21T10:07:32.407Z,-1.96
2018-02-21T10:08:32.269Z,-1.78
2018-02-21T10:09:32.306Z,-1.48
2018-02-21T10:10:32.342Z,-1.54
2018-02-21T10:11:32.256Z,-1.54
2018-02-21T10:12:32.278Z,-1.53
2018-02-21T10:13:32.267Z,-1.66
2018-02-21T10:14:32.282Z,-1.67
2018-02-21T10:15:32.235Z,-1.28
2018-02-21T10:16:32.229Z,-1.30
2018-02-21T10:17:32.228Z,-1.30
2018-02-21T10:18:32.242Z,-1.57
2018-02-21T10:19:32.286Z,-1.70
2018-02-21T10:20:32.218Z,-1.63
2018-02-21T10:21:32.212Z,-1.06
2018-02-21T10:22:32.203Z,-1.03
2018-02-21T10:23:32.201Z,-0.99
2018-02-21T10:24:32.273Z,-1.07
2018-02-21T10:25:32.228Z,-0.68
2018-02-21T10:26:32.250Z,-0.81
2018-02-21T10:27:32.204Z,-0.81
2018-02-21T10:28:32.187Z,-1.18
2018-02-21T10:29:32.241Z,-1.25
2018-02-21T10:30:32.209Z,-1.13
2018-02-21T10:31:33.252Z,-1.54
2018-02-21T10:32:32.272Z,-1.64
2018-02-21T10:33:32.172Z,-1.43
2018-02-21T10:34:33.109Z,-1.25
2018-02-21T10:35:32.167Z,-1.13
2018-02-21T10:36:32.181Z,-1.17
2018-02-21T10:37:32.179Z,-1.15
2018-02-21T10:38:32.251Z,-0.52
2018-02-21T10:39:32.213Z,-0.42
2018-02-21T10:40:32.151Z,-0.26
2018-02-21T10:41:32.150Z,-0.29
2018-02-21T10:42:32.147Z,-0.55
2018-02-21T10:43:32.193Z,-0.57
2018-02-21T10:44:32.202Z,-0.55
2018-02-21T10:45:32.140Z,-0.34
2018-02-21T10:46:32.138Z,-0.54
2018-02-21T10:47:32.138Z,-0.16
2018-02-21T10:48:32.189Z,-0.73
2018-02-21T10:49:32.196Z,-0.55
2018-02-21T10:50:32.134Z,-0.51
2018-02-21T10:51:32.140Z,-0.72
2018-02-21T10:52:32.135Z,-0.73
2018-02-21T10:53:32.130Z,-0.72
2018-02-21T10:54:32.187Z,-0.48
2018-02-21T10:55:32.139Z,-0.63
2018-02-21T10:56:32.151Z,0.02
2018-02-21T10:57:32.124Z,0.38
2018-02-21T10:58:32.123Z,0.75
2018-02-21T10:59:32.161Z,0.72
2018-02-21T11:00:32.121Z,0.67
2018-02-21T11:01:32.123Z,0.33
2018-02-21T11:02:32.120Z,1.03
2018-02-21T11:03:32.123Z,0.90
2018-02-21T11:04:32.165Z,1.61
2018-02-21T11:05:32.128Z,1.57
2018-02-21T11:06:32.128Z,1.52
2018-02-21T11:07:32.136Z,1.39
2018-02-21T11:08:32.135Z,2.01
2018-02-21T11:09:32.178Z,1.18
2018-02-21T11:10:32.141Z,0.72
2018-02-21T11:11:32.144Z,0.86
2018-02-21T11:12:32.152Z,1.12
2018-02-21T11:13:32.157Z,0.80
2018-02-21T11:14:32.203Z,-0.04
2018-02-21T11:15:32.166Z,-0.51
2018-02-21T11:16:32.170Z,-0.50
2018-02-21T11:17:32.174Z,0.23
2018-02-21T11:18:32.182Z,0.07
2018-02-21T11:19:32.240Z,-0.41
2018-02-21T11:20:32.185Z,-0.42
2018-02-21T11:21:32.187Z,0.21
2018-02-21T11:22:32.229Z,0.67
2018-02-21T11:23:32.229Z,0.61
2018-02-21T11:24:32.233Z,0.94
2018-02-21T11:25:32.202Z,0.62
2018-02-21T11:26:32.199Z,0.61
2018-02-21T11:27:32.201Z,0.82
2018-02-21T11:28:32.204Z,1.60
2018-02-21T11:29:32.242Z,1.99
2018-02-21T11:30:32.214Z,1.51
2018-02-21T11:31:32.214Z,1.90
2018-02-21T11:32:32.215Z,1.76
2018-02-21T11:33:32.260Z,1.32
2018-02-21T11:34:32.227Z,0.78
2018-02-21T11:35:32.228Z,1.26
2018-02-21T11:36:32.327Z,1.44
2018-02-21T11:37:32.237Z,0.72
2018-02-21T11:38:32.282Z,-0.09
2018-02-21T11:39:32.245Z,-0.09
2018-02-21T11:40:32.250Z,-0.15
2018-02-21T11:41:32.252Z,-0.16
2018-02-21T11:42:32.310Z,0.23
2018-02-21T11:43:32.319Z,0.51
2018-02-21T11:44:32.266Z,0.75
2018-02-21T11:45:32.270Z,1.14
2018-02-21T11:46:32.274Z,1.29
2018-02-21T11:47:32.315Z,1.51
2018-02-21T11:48:33.177Z,1.71
2018-02-21T11:49:32.282Z,1.72
2018-02-21T11:50:32.331Z,1.43
2018-02-21T11:51:32.288Z,1.19
2018-02-21T11:52:32.292Z,1.55
2018-02-21T11:53:32.354Z,1.60
2018-02-21T11:54:32.302Z,1.28
2018-02-21T11:55:32.311Z,0.98
2018-02-21T11:56:32.316Z,0.96
2018-02-21T11:57:32.358Z,0.94
2018-02-21T11:58:32.365Z,1.10
2018-02-21T11:59:32.335Z,1.22
2018-02-21T12:00:33.262Z,1.08
2018-02-21T12:01:32.349Z,0.78
2018-02-21T12:02:32.350Z,1.12
2018-02-21T12:03:32.407Z,1.10
2018-02-21T12:04:32.381Z,1.00
2018-02-21T12:05:32.369Z,1.42
2018-02-21T12:06:32.378Z,1.01
2018-02-21T12:07:32.383Z,0.96
2018-02-21T12:08:32.449Z,0.83
2018-02-21T12:09:32.395Z,1.06
2018-02-21T12:10:32.400Z,0.85
2018-02-21T12:11:32.408Z,1.03
2018-02-21T12:12:32.503Z,1.60
2018-02-21T12:13:32.476Z,1.01
2018-02-21T12:14:32.428Z,1.29
2018-02-21T12:15:32.432Z,1.57
2018-02-21T12:16:32.440Z,1.79
2018-02-21T12:17:32.445Z,1.87
2018-02-21T12:18:32.515Z,1.91
2018-02-21T12:19:32.457Z,1.22
2018-02-21T12:20:32.464Z,1.00
2018-02-21T12:21:32.470Z,1.32
2018-02-21T12:22:32.475Z,1.37
2018-02-21T12:23:32.518Z,1.62
2018-02-21T12:24:32.492Z,1.16
2018-02-21T12:25:32.495Z,1.15
2018-02-21T12:26:32.501Z,0.94
2018-02-21T12:27:32.508Z,1.24
2018-02-21T12:28:32.921Z,1.68
2018-02-21T12:29:32.542Z,1.85
2018-02-21T12:30:32.526Z,2.16
2018-02-21T12:31:32.542Z,2.23
2018-02-21T12:32:32.542Z,2.69
2018-02-21T12:33:32.605Z,2.48
2018-02-21T12:34:32.558Z,1.58
2018-02-21T12:35:32.558Z,2.12
2018-02-21T12:36:32.567Z,1.94
2018-02-21T12:37:32.574Z,2.12
2018-02-21T12:38:32.615Z,1.54
2018-02-21T12:39:32.592Z,2.23
2018-02-21T12:40:32.598Z,2.49
2018-02-21T12:41:32.601Z,2.22
2018-02-21T12:42:32.607Z,1.73
2018-02-21T12:43:32.654Z,1.93
2018-02-21T12:44:32.621Z,2.13
2018-02-21T12:45:32.631Z,1.82
2018-02-21T12:46:32.635Z,1.99
2018-02-21T12:47:32.639Z,2.23
2018-02-21T12:48:32.684Z,2.77
2018-02-21T12:49:32.654Z,2.82
2018-02-21T12:50:32.661Z,2.35
2018-02-21T12:51:32.669Z,2.28
2018-02-21T12:52:32.672Z,2.02
2018-02-21T12:53:32.743Z,2.44
2018-02-21T12:54:32.689Z,2.76
2018-02-21T12:55:32.699Z,2.74
2018-02-21T12:56:32.704Z,2.35